createdAt,value
2023-02-08T00:01:34.030Z,18.98
2023-02-08T00:04:01.434Z,20.05
2023-02-08T00:06:29.246Z,19.23
2023-02-08T00:08:57.825Z,18.15
2023-02-08T00:11:25.046Z,19.42
2023-02-08T00:13:52.687Z,19.27
2023-02-08T00:16:20.082Z,19.27
2023-02-08T00:18:49.848Z,26.60
2023-02-08T00:21:19.704Z,29.25
2023-02-08T00:23:48.724Z,26.48
2023-02-08T00:26:17.577Z,27.00
2023-02-08T00:28:47.107Z,22.02
2023-02-08T00:31:16.666Z,18.65
2023-02-08T00:33:44.144Z,19.55
2023-02-08T00:36:13.314Z,18.98
2023-02-08T00:38:41.107Z,20.38
2023-02-08T00:41:10.089Z,19.52
2023-02-08T00:43:38.525Z,19.10
2023-02-08T00:46:06.228Z,22.05
2023-02-08T00:48:33.727Z,21.60
2023-02-08T00:51:05.624Z,22.65
2023-02-08T00:53:37.580Z,22.63
2023-02-08T00:56:06.977Z,29.52
2023-02-08T00:58:35.713Z,33.17
2023-02-08T01:01:05.044Z,33.33
2023-02-08T01:03:40.856Z,30.88
2023-02-08T01:06:11.556Z,28.40
2023-02-08T01:08:39.256Z,25.05
2023-02-08T01:11:11.629Z,29.30
2023-02-08T01:13:39.649Z,25.00
2023-02-08T01:16:09.670Z,30.27
2023-02-08T01:18:45.239Z,54.20
2023-02-08T01:21:16.334Z,38.42
2023-02-08T01:23:45.146Z,39.83
2023-02-08T01:26:13.903Z,31.90
2023-02-08T01:28:41.833Z,32.33
2023-02-08T01:31:12.622Z,32.40
2023-02-08T01:33:40.403Z,34.15
2023-02-08T01:36:08.512Z,44.50
2023-02-08T01:38:37.135Z,32.35
2023-02-08T01:41:07.334Z,30.75
2023-02-08T01:43:56.810Z,34.70
2023-02-08T01:46:24.422Z,37.42
2023-02-08T01:49:02.726Z,29.60
2023-02-08T01:51:36.539Z,32.05
2023-02-08T01:54:07.650Z,32.15
2023-02-08T01:56:39.477Z,30.73
2023-02-08T01:59:14.959Z,30.33
2023-02-08T02:01:44.113Z,31.13
2023-02-08T02:04:11.897Z,32.85
2023-02-08T02:06:44.651Z,34.17
2023-02-08T02:09:19.214Z,36.05
2023-02-08T02:11:46.564Z,36.33
2023-02-08T02:14:15.991Z,34.83
2023-02-08T02:16:45.491Z,34.40
2023-02-08T02:19:45.279Z,36.50
2023-02-08T02:22:19.757Z,35.08
2023-02-08T02:25:24.829Z,36.22
2023-02-08T02:27:57.950Z,36.90
2023-02-08T02:30:46.269Z,43.33
2023-02-08T02:33:48.218Z,41.90
2023-02-08T02:36:23.014Z,43.22
2023-02-08T02:39:36.548Z,44.90
2023-02-08T02:42:37.267Z,44.08
2023-02-08T02:45:21.370Z,44.30
2023-02-08T02:47:56.373Z,44.88
2023-02-08T02:50:25.809Z,42.00
2023-02-08T02:53:08.108Z,45.60
2023-02-08T02:55:44.523Z,45.22
2023-02-08T02:58:16.924Z,45.60
2023-02-08T03:00:46.294Z,39.65
2023-02-08T03:03:22.903Z,39.10
2023-02-08T03:06:03.092Z,37.65
2023-02-08T03:08:48.706Z,41.30
2023-02-08T03:11:27.083Z,40.58
2023-02-08T03:14:28.117Z,39.33
2023-02-08T03:17:27.494Z,41.78
2023-02-08T03:20:09.582Z,39.08
2023-02-08T03:22:58.830Z,37.33
2023-02-08T03:25:37.032Z,35.13
2023-02-08T03:28:41.233Z,35.47
2023-02-08T03:31:31.314Z,36.97
2023-02-08T03:34:21.475Z,35.03
2023-02-08T03:36:58.205Z,35.03
2023-02-08T03:39:30.114Z,36.85
2023-02-08T03:42:03.347Z,36.15
2023-02-08T03:47:13.817Z,39.72
2023-02-08T03:49:42.979Z,38.10
2023-02-08T03:52:11.115Z,41.05
2023-02-08T03:54:49.868Z,54.20
2023-02-08T03:57:23.653Z,100.63
2023-02-08T04:00:00.201Z,53.50
2023-02-08T04:02:31.968Z,41.67
2023-02-08T04:05:01.505Z,41.35
2023-02-08T04:07:28.909Z,43.30
2023-02-08T04:09:56.260Z,48.78
2023-02-08T04:12:23.864Z,51.25
2023-02-08T04:14:51.143Z,59.90
2023-02-08T04:17:18.652Z,63.70
2023-02-08T04:19:46.094Z,56.67
2023-02-08T04:22:14.621Z,50.83
2023-02-08T04:24:43.141Z,46.05
2023-02-08T04:27:11.566Z,45.58
2023-02-08T04:29:39.020Z,45.42
2023-02-08T04:32:08.572Z,49.55
2023-02-08T04:34:36.024Z,47.47
2023-02-08T04:37:03.387Z,49.17
2023-02-08T04:39:31.992Z,49.70
2023-02-08T04:42:00.344Z,50.90
2023-02-08T04:44:28.992Z,51.55
2023-02-08T04:46:57.230Z,54.25
2023-02-08T04:49:24.775Z,52.80
2023-02-08T04:51:54.408Z,52.17
2023-02-08T04:54:22.010Z,50.97
2023-02-08T04:56:49.301Z,51.55
2023-02-08T04:59:16.921Z,51.15
2023-02-08T05:01:44.033Z,49.30
2023-02-08T05:04:11.458Z,50.80
2023-02-08T05:06:39.096Z,49.63
2023-02-08T05:09:10.320Z,46.50
2023-02-08T05:11:38.498Z,45.50
2023-02-08T05:14:07.810Z,43.80
2023-02-08T05:16:41.676Z,46.10
2023-02-08T05:19:14.546Z,47.42
2023-02-08T05:21:42.055Z,50.95
2023-02-08T05:24:12.965Z,53.83
2023-02-08T05:26:41.697Z,52.85
2023-02-08T05:29:09.065Z,52.92
2023-02-08T05:31:37.807Z,52.17
2023-02-08T05:34:05.143Z,53.95
2023-02-08T05:36:39.445Z,53.72
2023-02-08T05:39:06.813Z,54.80
2023-02-08T05:41:38.183Z,54.38
2023-02-08T05:44:05.746Z,55.42
2023-02-08T05:46:33.140Z,55.90
2023-02-08T05:49:01.742Z,54.55
2023-02-08T05:51:29.146Z,51.35
2023-02-08T05:54:02.170Z,49.35
2023-02-08T05:56:30.045Z,49.00
2023-02-08T05:59:00.703Z,48.20
2023-02-08T06:01:33.785Z,45.83
2023-02-08T06:04:01.114Z,47.08
2023-02-08T06:06:30.595Z,47.42
2023-02-08T06:09:00.083Z,45.47
2023-02-08T06:11:29.562Z,45.55
2023-02-08T06:13:56.758Z,47.42
2023-02-08T06:16:24.410Z,47.53
2023-02-08T06:18:52.853Z,47.05
2023-02-08T06:21:20.332Z,47.88
2023-02-08T06:23:47.797Z,48.47
2023-02-08T06:26:15.203Z,50.67
2023-02-08T06:28:42.784Z,49.35
2023-02-08T06:31:10.410Z,51.13
2023-02-08T06:33:37.729Z,48.53
2023-02-08T06:36:05.446Z,48.67
2023-02-08T06:38:32.729Z,50.15
2023-02-08T06:41:00.215Z,49.50
2023-02-08T06:43:27.613Z,50.10
2023-02-08T06:45:55.125Z,47.67
2023-02-08T06:48:22.591Z,48.63
2023-02-08T06:50:53.802Z,49.92
2023-02-08T06:53:22.094Z,49.35
2023-02-08T06:55:51.284Z,49.65
2023-02-08T06:58:20.327Z,53.25
2023-02-08T07:00:47.662Z,58.55
2023-02-08T07:03:17.804Z,65.72
2023-02-08T07:06:03.484Z,64.65
2023-02-08T07:08:32.375Z,60.20
2023-02-08T07:10:59.990Z,52.80
2023-02-08T07:13:27.386Z,46.30
2023-02-08T07:15:54.973Z,45.80
2023-02-08T07:18:23.271Z,46.97
2023-02-08T07:20:50.866Z,49.35
2023-02-08T07:23:20.320Z,50.55
2023-02-08T07:26:00.662Z,49.58
2023-02-08T07:28:28.537Z,46.53
2023-02-08T07:30:56.716Z,46.78
2023-02-08T07:33:26.044Z,50.08
2023-02-08T07:35:53.434Z,45.20
2023-02-08T07:38:21.928Z,43.35
2023-02-08T07:40:49.386Z,45.10
2023-02-08T07:43:16.827Z,43.88
2023-02-08T07:45:46.347Z,43.65
2023-02-08T07:48:13.817Z,45.22
2023-02-08T07:50:41.470Z,45.92
2023-02-08T07:53:09.247Z,48.00
2023-02-08T07:55:36.656Z,46.95
2023-02-08T07:58:04.207Z,45.50
2023-02-08T08:00:31.669Z,44.88
2023-02-08T08:02:58.728Z,45.38
2023-02-08T08:05:26.126Z,44.42
2023-02-08T08:07:53.546Z,44.92
2023-02-08T08:10:20.979Z,44.67
2023-02-08T08:12:48.410Z,47.83
2023-02-08T08:15:16.883Z,45.58
2023-02-08T08:17:44.394Z,45.45
2023-02-08T08:20:12.050Z,44.88
2023-02-08T08:22:39.250Z,45.85
2023-02-08T08:25:07.939Z,45.15
2023-02-08T08:27:35.448Z,47.00
2023-02-08T08:30:13.668Z,46.15
2023-02-08T08:32:42.181Z,46.25
2023-02-08T08:35:11.449Z,48.50
2023-02-08T08:37:38.881Z,47.63
2023-02-08T08:40:12.698Z,45.78
2023-02-08T08:42:41.977Z,49.00
2023-02-08T08:45:11.145Z,46.38
2023-02-08T08:47:38.378Z,45.35
2023-02-08T08:50:07.149Z,46.47
2023-02-08T08:52:43.108Z,46.05
2023-02-08T08:55:11.540Z,46.60
2023-02-08T08:57:38.953Z,47.03
2023-02-08T09:00:07.837Z,46.38
2023-02-08T09:02:35.826Z,47.10
2023-02-08T09:05:05.669Z,48.45
2023-02-08T09:07:33.828Z,48.40
2023-02-08T09:10:02.480Z,45.25
2023-02-08T09:12:30.245Z,46.08
2023-02-08T09:14:57.952Z,46.63
2023-02-08T09:17:25.736Z,47.25
2023-02-08T09:19:53.260Z,45.47
2023-02-08T09:22:20.846Z,47.65
2023-02-08T09:24:50.262Z,45.58
2023-02-08T09:27:19.341Z,45.08
2023-02-08T09:29:46.624Z,46.83
2023-02-08T09:32:14.184Z,44.03
2023-02-08T09:34:41.619Z,44.42
2023-02-08T09:37:09.094Z,44.10
2023-02-08T09:39:36.524Z,42.85
2023-02-08T09:42:14.684Z,44.88
2023-02-08T09:45:01.140Z,40.53
2023-02-08T09:47:54.597Z,44.17
2023-02-08T09:50:48.610Z,42.40
2023-02-08T09:53:25.691Z,43.88
2023-02-08T09:56:11.777Z,43.70
2023-02-08T09:58:54.039Z,43.45
2023-02-08T10:01:37.002Z,43.25
2023-02-08T10:04:26.244Z,45.63
2023-02-08T10:06:59.594Z,39.72
2023-02-08T10:12:05.970Z,40.28
2023-02-08T10:14:55.016Z,48.42
2023-02-08T10:17:26.012Z,42.88
2023-02-08T10:20:25.267Z,45.47
2023-02-08T10:23:13.347Z,41.72
2023-02-08T10:25:49.908Z,43.35
2023-02-08T10:28:24.290Z,37.25
2023-02-08T10:31:12.705Z,38.45
2023-02-08T10:34:01.867Z,37.28
2023-02-08T10:36:42.221Z,36.33
2023-02-08T10:39:18.000Z,36.45
2023-02-08T10:41:46.563Z,34.42
2023-02-08T10:44:28.836Z,34.45
2023-02-08T10:47:34.858Z,36.00
2023-02-08T10:50:30.978Z,34.97
2023-02-08T10:52:58.312Z,32.45
2023-02-08T10:55:26.969Z,36.22
2023-02-08T10:57:59.907Z,34.47
2023-02-08T11:00:31.650Z,36.67
2023-02-08T11:03:04.987Z,36.28
2023-02-08T11:08:19.871Z,34.03
2023-02-08T11:11:16.952Z,34.35
2023-02-08T11:13:48.489Z,33.95
2023-02-08T11:16:26.958Z,33.10
2023-02-08T11:18:59.709Z,33.97
2023-02-08T11:21:40.609Z,34.63
2023-02-08T11:24:16.781Z,33.28
2023-02-08T11:26:44.536Z,33.63
2023-02-08T11:29:26.744Z,35.58
2023-02-08T11:32:02.551Z,34.53
2023-02-08T11:34:38.787Z,33.13
2023-02-08T11:37:21.952Z,33.17
2023-02-08T11:40:00.048Z,32.22
2023-02-08T11:42:31.655Z,35.45
2023-02-08T11:45:00.759Z,34.30
2023-02-08T11:47:35.665Z,31.95
2023-02-08T11:50:06.439Z,28.05
2023-02-08T11:52:41.873Z,25.85
2023-02-08T11:55:29.865Z,25.80
2023-02-08T11:58:24.853Z,27.85
2023-02-08T12:01:18.197Z,44.53
2023-02-08T12:03:50.498Z,32.15
2023-02-08T12:06:43.307Z,20.58
2023-02-08T12:09:28.912Z,24.50
2023-02-08T12:12:18.040Z,23.08
2023-02-08T12:15:05.150Z,23.30
2023-02-08T12:18:04.065Z,24.02
2023-02-08T12:20:42.871Z,24.55
2023-02-08T12:23:19.104Z,23.15
2023-02-08T12:26:13.042Z,24.08
2023-02-08T12:29:04.167Z,25.33
2023-02-08T12:32:02.410Z,25.20
2023-02-08T12:35:00.614Z,25.15
2023-02-08T12:38:13.263Z,29.25
2023-02-08T12:40:58.332Z,30.63
2023-02-08T12:44:03.675Z,32.78
2023-02-08T12:46:44.908Z,31.60
2023-02-08T12:49:34.149Z,34.33
2023-02-08T12:52:12.134Z,30.08
2023-02-08T12:54:42.080Z,31.33
2023-02-08T12:57:15.130Z,31.60
2023-02-08T12:59:57.090Z,34.15
2023-02-08T13:02:34.579Z,26.58
2023-02-08T13:05:07.727Z,31.67
2023-02-08T13:07:46.473Z,26.00
2023-02-08T13:10:28.138Z,27.13
2023-02-08T13:13:18.521Z,27.83
2023-02-08T13:16:03.595Z,29.00
2023-02-08T13:18:35.791Z,27.95
2023-02-08T13:21:08.079Z,27.45
2023-02-08T13:23:51.663Z,28.90
2023-02-08T13:26:32.564Z,28.85
2023-02-08T13:29:02.723Z,27.23
2023-02-08T13:31:36.280Z,26.92
2023-02-08T13:34:33.980Z,30.02
2023-02-08T13:37:16.555Z,29.33
2023-02-08T13:40:00.170Z,31.42
2023-02-08T13:42:47.986Z,31.27
2023-02-08T13:45:33.199Z,29.10
2023-02-08T13:48:08.158Z,32.78
2023-02-08T13:50:35.272Z,32.80
2023-02-08T13:53:03.840Z,34.17
2023-02-08T13:55:36.164Z,31.60
2023-02-08T13:58:49.448Z,33.65
2023-02-08T14:01:21.601Z,32.28
2023-02-08T14:04:10.432Z,31.98
2023-02-08T14:06:47.293Z,29.95
2023-02-08T14:09:29.022Z,33.92
2023-02-08T14:12:41.295Z,34.80
2023-02-08T14:15:18.819Z,34.97
2023-02-08T14:17:50.403Z,34.53
2023-02-08T14:20:22.402Z,35.03
2023-02-08T14:22:57.394Z,36.72
2023-02-08T14:25:47.248Z,35.85
2023-02-08T14:28:29.434Z,34.80
2023-02-08T14:31:00.110Z,37.25
2023-02-08T14:33:41.437Z,35.95
2023-02-08T14:36:31.674Z,36.35
2023-02-08T14:39:30.790Z,36.03
2023-02-08T14:42:14.286Z,35.92
2023-02-08T14:44:58.076Z,36.35
2023-02-08T14:50:23.173Z,33.92
2023-02-08T14:53:06.789Z,35.22
2023-02-08T14:56:00.405Z,35.10
2023-02-08T14:58:51.462Z,34.63
2023-02-08T15:01:25.928Z,35.95
2023-02-08T15:04:01.878Z,35.28
2023-02-08T15:06:41.191Z,37.35
2023-02-08T15:09:22.568Z,37.83
2023-02-08T15:12:07.999Z,40.75
2023-02-08T15:14:37.801Z,38.33
2023-02-08T15:17:23.786Z,39.22
2023-02-08T15:19:58.161Z,40.65
2023-02-08T15:22:26.108Z,39.70
2023-02-08T15:24:56.299Z,40.63
2023-02-08T15:27:28.133Z,39.72
2023-02-08T15:29:56.525Z,41.42
2023-02-08T15:32:27.233Z,42.08
2023-02-08T15:35:00.682Z,42.42
2023-02-08T15:40:01.656Z,45.35
2023-02-08T15:42:32.805Z,44.25
2023-02-08T15:45:24.374Z,46.47
2023-02-08T15:47:52.767Z,44.00
2023-02-08T15:50:22.871Z,43.58
2023-02-08T15:53:02.972Z,44.17
2023-02-08T15:55:44.680Z,42.45
2023-02-08T15:58:30.420Z,41.25
2023-02-08T16:01:09.601Z,41.67
2023-02-08T16:03:39.103Z,40.53
2023-02-08T16:06:12.328Z,40.97
2023-02-08T16:08:44.195Z,43.22
2023-02-08T16:11:21.755Z,42.50
2023-02-08T16:13:52.295Z,43.70
2023-02-08T16:16:28.497Z,43.47
2023-02-08T16:19:01.445Z,43.80
2023-02-08T16:21:38.677Z,42.90
2023-02-08T16:24:21.394Z,48.17
2023-02-08T16:26:56.753Z,44.93
2023-02-08T16:29:28.492Z,46.55
2023-02-08T16:32:13.112Z,46.35
2023-02-08T16:34:41.326Z,43.38
2023-02-08T16:37:21.258Z,41.78
2023-02-08T16:39:58.128Z,43.47
2023-02-08T16:42:37.173Z,43.38
2023-02-08T16:45:21.309Z,42.25
2023-02-08T16:48:00.190Z,45.10
2023-02-08T16:50:34.536Z,45.47
2023-02-08T16:53:05.673Z,44.67
2023-02-08T16:55:37.558Z,46.15
2023-02-08T16:58:07.183Z,46.53
2023-02-08T17:00:36.154Z,47.83
2023-02-08T17:03:04.909Z,50.58
2023-02-08T17:05:40.926Z,67.47
2023-02-08T17:08:21.346Z,60.40
2023-02-08T17:10:52.242Z,59.95
2023-02-08T17:13:21.441Z,49.03
2023-02-08T17:16:00.837Z,52.28
2023-02-08T17:18:28.826Z,49.40
2023-02-08T17:21:00.326Z,51.28
2023-02-08T17:23:30.714Z,50.67
2023-02-08T17:25:58.183Z,59.55
2023-02-08T17:28:27.676Z,52.50
2023-02-08T17:30:55.919Z,53.53
2023-02-08T17:33:26.826Z,54.10
2023-02-08T17:35:54.766Z,52.90
2023-02-08T17:38:22.752Z,47.30
2023-02-08T17:40:51.130Z,44.63
2023-02-08T17:43:21.280Z,46.58
2023-02-08T17:45:49.561Z,49.30
2023-02-08T17:48:18.140Z,46.78
2023-02-08T17:50:51.812Z,51.05
2023-02-08T17:53:20.071Z,49.22
2023-02-08T17:55:48.364Z,50.95
2023-02-08T17:58:22.353Z,55.30
2023-02-08T18:00:50.372Z,55.00
2023-02-08T18:03:18.089Z,62.17
2023-02-08T18:05:45.834Z,65.60
2023-02-08T18:08:14.395Z,66.03
2023-02-08T18:10:44.694Z,58.53
2023-02-08T18:13:13.169Z,63.55
2023-02-08T18:15:45.100Z,62.65
2023-02-08T18:18:14.980Z,70.97
2023-02-08T18:20:47.897Z,73.97
2023-02-08T18:23:16.784Z,73.85
2023-02-08T18:25:44.768Z,68.75
2023-02-08T18:28:17.222Z,70.80
2023-02-08T18:30:52.656Z,68.17
2023-02-08T18:33:21.091Z,62.47
2023-02-08T18:35:52.429Z,66.32
2023-02-08T18:38:27.347Z,67.78
2023-02-08T18:40:56.412Z,67.25
2023-02-08T18:43:24.768Z,62.88
2023-02-08T18:46:09.888Z,64.72
2023-02-08T18:48:43.397Z,65.57
2023-02-08T18:51:13.883Z,64.63
2023-02-08T18:53:46.365Z,62.58
2023-02-08T18:56:15.478Z,63.20
2023-02-08T18:58:44.606Z,64.22
2023-02-08T19:01:15.990Z,64.05
2023-02-08T19:03:45.644Z,66.72
2023-02-08T19:06:27.302Z,64.10
2023-02-08T19:08:58.793Z,63.72
2023-02-08T19:11:30.243Z,61.80
2023-02-08T19:14:02.463Z,65.80
2023-02-08T19:16:33.163Z,72.07
2023-02-08T19:19:01.618Z,74.25
2023-02-08T19:21:31.117Z,71.68
2023-02-08T19:24:07.591Z,79.43
2023-02-08T19:26:40.288Z,84.75
2023-02-08T19:29:20.763Z,88.15
2023-02-08T19:31:50.283Z,74.68
2023-02-08T19:34:23.802Z,73.78
2023-02-08T19:36:56.182Z,71.80
2023-02-08T19:39:28.147Z,73.13
2023-02-08T19:41:59.359Z,72.50
2023-02-08T19:44:30.303Z,71.13
2023-02-08T19:46:59.422Z,75.03
2023-02-08T19:49:29.120Z,72.35
2023-02-08T19:51:57.816Z,80.50
2023-02-08T19:54:32.665Z,73.25
2023-02-08T19:57:00.359Z,75.65
2023-02-08T19:59:35.214Z,70.65
2023-02-08T20:02:03.670Z,70.63
2023-02-08T20:04:31.848Z,69.53
2023-02-08T20:07:01.240Z,69.57
2023-02-08T20:09:31.234Z,67.00
2023-02-08T20:12:00.423Z,70.43
2023-02-08T20:14:31.934Z,70.55
2023-02-08T20:17:04.414Z,75.03
2023-02-08T20:19:37.284Z,80.72
2023-02-08T20:22:05.780Z,89.88
2023-02-08T20:24:34.153Z,90.63
2023-02-08T20:27:02.698Z,81.32
2023-02-08T20:29:33.304Z,74.45
2023-02-08T20:32:04.610Z,80.38
2023-02-08T20:34:33.212Z,80.30
2023-02-08T20:37:07.834Z,83.20
2023-02-08T20:39:38.384Z,87.10
2023-02-08T20:42:06.672Z,84.93
2023-02-08T20:44:35.657Z,85.13
2023-02-08T20:47:06.021Z,88.63
2023-02-08T20:49:35.197Z,87.35
2023-02-08T20:52:05.187Z,85.57
2023-02-08T20:54:33.577Z,88.70
2023-02-08T20:57:02.753Z,87.70
2023-02-08T20:59:31.855Z,85.00
2023-02-08T21:01:59.279Z,87.47
2023-02-08T21:04:27.486Z,86.15
2023-02-08T21:06:55.491Z,84.60
2023-02-08T21:09:24.107Z,84.20
2023-02-08T21:11:52.323Z,85.38
2023-02-08T21:14:23.677Z,89.13
2023-02-08T21:16:57.301Z,90.40
2023-02-08T21:19:27.576Z,91.18
2023-02-08T21:21:58.542Z,92.18
2023-02-08T21:24:28.568Z,89.43
2023-02-08T21:26:57.165Z,86.22
2023-02-08T21:29:26.674Z,84.88
2023-02-08T21:31:56.570Z,84.90
2023-02-08T21:34:23.721Z,86.25
2023-02-08T21:36:51.359Z,89.60
2023-02-08T21:39:19.032Z,82.75
2023-02-08T21:41:48.489Z,82.47
2023-02-08T21:44:16.799Z,82.97
2023-02-08T21:46:44.306Z,86.88
2023-02-08T21:49:31.489Z,90.93
2023-02-08T21:52:19.192Z,90.85
2023-02-08T21:54:53.296Z,89.57
2023-02-08T21:57:23.165Z,90.55
2023-02-08T21:59:53.573Z,90.03
2023-02-08T22:02:29.105Z,88.22
2023-02-08T22:04:59.178Z,89.68
2023-02-08T22:07:27.445Z,90.75
2023-02-08T22:09:56.596Z,85.65
2023-02-08T22:12:24.362Z,84.95
2023-02-08T22:14:53.004Z,83.25
2023-02-08T22:17:20.683Z,83.95
2023-02-08T22:19:49.110Z,86.28
2023-02-08T22:22:18.470Z,85.55
2023-02-08T22:24:46.096Z,84.10
2023-02-08T22:27:13.499Z,83.50
2023-02-08T22:29:40.955Z,81.63
2023-02-08T22:32:10.201Z,80.70
2023-02-08T22:34:38.751Z,79.82
2023-02-08T22:37:07.940Z,78.13
2023-02-08T22:39:37.542Z,77.85
2023-02-08T22:42:09.184Z,78.70
2023-02-08T22:44:40.222Z,78.88
2023-02-08T22:47:11.964Z,82.60
2023-02-08T22:49:39.251Z,79.90
2023-02-08T22:52:09.904Z,80.40
2023-02-08T22:54:39.290Z,80.65
2023-02-08T22:57:07.165Z,82.70
2023-02-08T22:59:34.893Z,82.43
2023-02-08T23:02:02.156Z,80.22
2023-02-08T23:04:30.191Z,77.78
2023-02-08T23:06:58.894Z,79.30
2023-02-08T23:09:28.461Z,82.15
2023-02-08T23:11:56.875Z,91.03
2023-02-08T23:14:36.451Z,90.28
2023-02-08T23:17:04.143Z,97.55
2023-02-08T23:19:31.331Z,90.60
2023-02-08T23:21:59.843Z,84.57
2023-02-08T23:24:28.599Z,86.93
2023-02-08T23:26:56.786Z,80.30
2023-02-08T23:29:24.350Z,78.85
2023-02-08T23:31:51.941Z,77.40
2023-02-08T23:34:20.280Z,79.05
2023-02-08T23:36:48.987Z,80.30
2023-02-08T23:39:22.435Z,79.72
2023-02-08T23:41:49.971Z,80.20
2023-02-08T23:44:17.465Z,83.35
2023-02-08T23:46:45.048Z,82.30
2023-02-08T23:49:13.302Z,84.40
2023-02-08T23:51:40.743Z,83.85
2023-02-08T23:54:09.338Z,81.03
2023-02-08T23:56:36.760Z,84.55
2023-02-08T23:59:11.864Z,84.38
